sensor_id;sensor_type;location;lat;lon;timestamp;P1;durP1;ratioP1;P2;durP2;ratioP2
66353;SDS011;53150;48.296;16.452;2023-02-26T00:00:25;6.90;;;2.97;;
66353;SDS011;53150;48.296;16.452;2023-02-26T00:02:51;5.28;;;2.50;;
66353;SDS011;53150;48.296;16.452;2023-02-26T00:05:17;5.85;;;2.97;;
66353;SDS011;53150;48.296;16.452;2023-02-26T00:07:44;4.75;;;2.65;;
66353;SDS011;53150;48.296;16.452;2023-02-26T00:10:11;5.50;;;2.60;;
66353;SDS011;53150;48.296;16.452;2023-02-26T00:12:40;4.55;;;2.10;;
66353;SDS011;53150;48.296;16.452;2023-02-26T00:15:06;5.18;;;2.20;;
66353;SDS011;53150;48.296;16.452;2023-02-26T00:17:44;4.28;;;2.40;;
66353;SDS011;53150;48.296;16.452;2023-02-26T00:20:13;6.35;;;2.78;;
66353;SDS011;53150;48.296;16.452;2023-02-26T00:22:41;6.03;;;2.35;;
66353;SDS011;53150;48.296;16.452;2023-02-26T00:25:07;5.03;;;2.40;;
66353;SDS011;53150;48.296;16.452;2023-02-26T00:27:34;5.97;;;2.88;;
66353;SDS011;53150;48.296;16.452;2023-02-26T00:30:00;6.30;;;3.25;;
66353;SDS011;53150;48.296;16.452;2023-02-26T00:32:26;4.85;;;2.38;;
66353;SDS011;53150;48.296;16.452;2023-02-26T00:34:52;5.90;;;2.80;;
66353;SDS011;53150;48.296;16.452;2023-02-26T00:39:58;5.55;;;2.80;;
66353;SDS011;53150;48.296;16.452;2023-02-26T00:42:26;5.63;;;2.65;;
66353;SDS011;53150;48.296;16.452;2023-02-26T00:44:52;5.47;;;2.40;;
66353;SDS011;53150;48.296;16.452;2023-02-26T00:52:14;6.68;;;3.00;;
66353;SDS011;53150;48.296;16.452;2023-02-26T00:54:42;4.90;;;2.47;;
66353;SDS011;53150;48.296;16.452;2023-02-26T00:57:08;5.88;;;2.78;;
66353;SDS011;53150;48.296;16.452;2023-02-26T00:59:34;5.05;;;2.67;;
66353;SDS011;53150;48.296;16.452;2023-02-26T01:02:00;5.10;;;2.72;;
66353;SDS011;53150;48.296;16.452;2023-02-26T01:04:26;5.28;;;2.45;;
66353;SDS011;53150;48.296;16.452;2023-02-26T01:06:53;5.43;;;2.22;;
66353;SDS011;53150;48.296;16.452;2023-02-26T01:09:24;5.40;;;2.75;;
66353;SDS011;53150;48.296;16.452;2023-02-26T01:11:52;6.13;;;2.47;;
66353;SDS011;53150;48.296;16.452;2023-02-26T01:14:18;4.63;;;2.20;;
66353;SDS011;53150;48.296;16.452;2023-02-26T01:17:20;6.45;;;2.65;;
66353;SDS011;53150;48.296;16.452;2023-02-26T01:22:27;5.88;;;2.28;;
66353;SDS011;53150;48.296;16.452;2023-02-26T01:25:02;4.70;;;2.33;;
66353;SDS011;53150;48.296;16.452;2023-02-26T01:27:29;6.28;;;2.80;;
66353;SDS011;53150;48.296;16.452;2023-02-26T01:29:55;6.82;;;2.70;;
66353;SDS011;53150;48.296;16.452;2023-02-26T01:32:27;6.82;;;3.30;;
66353;SDS011;53150;48.296;16.452;2023-02-26T01:35:39;5.30;;;2.30;;
66353;SDS011;53150;48.296;16.452;2023-02-26T01:37:56;7.22;;;2.95;;
66353;SDS011;53150;48.296;16.452;2023-02-26T01:40:35;6.45;;;2.97;;
66353;SDS011;53150;48.296;16.452;2023-02-26T01:43:07;6.05;;;2.20;;
66353;SDS011;53150;48.296;16.452;2023-02-26T01:45:38;5.55;;;2.83;;
66353;SDS011;53150;48.296;16.452;2023-02-26T01:48:12;5.28;;;2.63;;
66353;SDS011;53150;48.296;16.452;2023-02-26T01:50:43;5.30;;;2.50;;
66353;SDS011;53150;48.296;16.452;2023-02-26T01:53:22;5.15;;;2.50;;
66353;SDS011;53150;48.296;16.452;2023-02-26T01:55:50;5.35;;;2.63;;
66353;SDS011;53150;48.296;16.452;2023-02-26T01:58:17;4.78;;;2.22;;
66353;SDS011;53150;48.296;16.452;2023-02-26T02:00:44;5.55;;;3.13;;
66353;SDS011;53150;48.296;16.452;2023-02-26T02:03:10;4.32;;;2.20;;
66353;SDS011;53150;48.296;16.452;2023-02-26T02:05:47;5.13;;;2.38;;
66353;SDS011;53150;48.296;16.452;2023-02-26T02:08:15;4.57;;;2.30;;
66353;SDS011;53150;48.296;16.452;2023-02-26T02:10:45;4.38;;;2.33;;
66353;SDS011;53150;48.296;16.452;2023-02-26T02:13:34;5.57;;;2.67;;
66353;SDS011;53150;48.296;16.452;2023-02-26T02:16:11;4.75;;;2.20;;
66353;SDS011;53150;48.296;16.452;2023-02-26T02:21:15;5.22;;;2.20;;
66353;SDS011;53150;48.296;16.452;2023-02-26T02:36:26;5.07;;;2.20;;
66353;SDS011;53150;48.296;16.452;2023-02-26T02:38:55;4.93;;;2.53;;
66353;SDS011;53150;48.296;16.452;2023-02-26T02:41:26;3.90;;;1.45;;
66353;SDS011;53150;48.296;16.452;2023-02-26T02:43:53;5.10;;;2.40;;
66353;SDS011;53150;48.296;16.452;2023-02-26T02:46:23;4.55;;;2.10;;
66353;SDS011;53150;48.296;16.452;2023-02-26T02:51:57;5.60;;;2.50;;
66353;SDS011;53150;48.296;16.452;2023-02-26T02:54:26;4.93;;;2.50;;
66353;SDS011;53150;48.296;16.452;2023-02-26T02:56:55;4.75;;;1.85;;
66353;SDS011;53150;48.296;16.452;2023-02-26T02:59:57;4.78;;;2.42;;
66353;SDS011;53150;48.296;16.452;2023-02-26T03:04:42;4.53;;;2.08;;
66353;SDS011;53150;48.296;16.452;2023-02-26T03:07:08;5.40;;;2.05;;
66353;SDS011;53150;48.296;16.452;2023-02-26T03:09:34;4.15;;;2.15;;
66353;SDS011;53150;48.296;16.452;2023-02-26T03:12:00;5.55;;;2.60;;
66353;SDS011;53150;48.296;16.452;2023-02-26T03:14:26;5.22;;;2.10;;
66353;SDS011;53150;48.296;16.452;2023-02-26T03:22:06;6.32;;;2.53;;
66353;SDS011;53150;48.296;16.452;2023-02-26T03:24:38;4.75;;;2.08;;
66353;SDS011;53150;48.296;16.452;2023-02-26T03:27:23;4.35;;;2.00;;
66353;SDS011;53150;48.296;16.452;2023-02-26T03:32:27;5.05;;;2.40;;
66353;SDS011;53150;48.296;16.452;2023-02-26T03:34:57;5.25;;;2.35;;
66353;SDS011;53150;48.296;16.452;2023-02-26T03:37:59;5.40;;;2.28;;
66353;SDS011;53150;48.296;16.452;2023-02-26T03:40:18;5.68;;;2.10;;
66353;SDS011;53150;48.296;16.452;2023-02-26T03:42:51;4.75;;;1.98;;
66353;SDS011;53150;48.296;16.452;2023-02-26T03:45:19;4.97;;;2.45;;
66353;SDS011;53150;48.296;16.452;2023-02-26T03:47:47;4.43;;;2.03;;
66353;SDS011;53150;48.296;16.452;2023-02-26T03:50:28;5.65;;;2.65;;
66353;SDS011;53150;48.296;16.452;2023-02-26T03:52:56;4.78;;;2.10;;
66353;SDS011;53150;48.296;16.452;2023-02-26T03:55:34;5.25;;;2.30;;
66353;SDS011;53150;48.296;16.452;2023-02-26T03:58:03;4.97;;;2.15;;
66353;SDS011;53150;48.296;16.452;2023-02-26T04:00:29;5.57;;;2.20;;
66353;SDS011;53150;48.296;16.452;2023-02-26T04:03:44;5.90;;;1.88;;
66353;SDS011;53150;48.296;16.452;2023-02-26T04:05:44;5.80;;;2.40;;
66353;SDS011;53150;48.296;16.452;2023-02-26T04:08:12;4.63;;;2.10;;
66353;SDS011;53150;48.296;16.452;2023-02-26T04:10:43;4.47;;;2.22;;
66353;SDS011;53150;48.296;16.452;2023-02-26T04:13:09;5.10;;;2.20;;
66353;SDS011;53150;48.296;16.452;2023-02-26T04:15:35;5.80;;;2.70;;
66353;SDS011;53150;48.296;16.452;2023-02-26T04:18:01;4.72;;;2.22;;
66353;SDS011;53150;48.296;16.452;2023-02-26T04:20:27;5.93;;;2.40;;
66353;SDS011;53150;48.296;16.452;2023-02-26T04:22:53;5.28;;;2.47;;
66353;SDS011;53150;48.296;16.452;2023-02-26T04:25:19;6.30;;;2.55;;
66353;SDS011;53150;48.296;16.452;2023-02-26T04:27:48;5.13;;;2.70;;
66353;SDS011;53150;48.296;16.452;2023-02-26T04:30:14;5.38;;;2.45;;
66353;SDS011;53150;48.296;16.452;2023-02-26T04:32:40;5.75;;;2.60;;
66353;SDS011;53150;48.296;16.452;2023-02-26T04:35:07;5.43;;;2.22;;
66353;SDS011;53150;48.296;16.452;2023-02-26T04:37:33;6.13;;;2.45;;
66353;SDS011;53150;48.296;16.452;2023-02-26T04:39:59;6.47;;;2.45;;
66353;SDS011;53150;48.296;16.452;2023-02-26T04:42:25;5.18;;;2.60;;
66353;SDS011;53150;48.296;16.452;2023-02-26T04:44:51;5.43;;;2.53;;
66353;SDS011;53150;48.296;16.452;2023-02-26T04:47:17;5.50;;;2.42;;
66353;SDS011;53150;48.296;16.452;2023-02-26T04:49:43;6.65;;;2.63;;
66353;SDS011;53150;48.296;16.452;2023-02-26T04:52:09;6.03;;;2.50;;
66353;SDS011;53150;48.296;16.452;2023-02-26T04:54:35;6.13;;;2.55;;
66353;SDS011;53150;48.296;16.452;2023-02-26T04:57:02;5.47;;;2.63;;
66353;SDS011;53150;48.296;16.452;2023-02-26T04:59:28;5.57;;;2.50;;
66353;SDS011;53150;48.296;16.452;2023-02-26T05:01:54;5.22;;;2.53;;
66353;SDS011;53150;48.296;16.452;2023-02-26T05:04:20;5.40;;;2.15;;
66353;SDS011;53150;48.296;16.452;2023-02-26T05:06:46;7.25;;;2.95;;
66353;SDS011;53150;48.296;16.452;2023-02-26T05:09:12;6.40;;;2.35;;
66353;SDS011;53150;48.296;16.452;2023-02-26T05:11:38;6.40;;;3.03;;
66353;SDS011;53150;48.296;16.452;2023-02-26T05:14:04;6.53;;;2.45;;
66353;SDS011;53150;48.296;16.452;2023-02-26T05:16:30;6.45;;;2.60;;
66353;SDS011;53150;48.296;16.452;2023-02-26T05:18:56;6.38;;;3.05;;
66353;SDS011;53150;48.296;16.452;2023-02-26T05:21:22;5.40;;;2.35;;
66353;SDS011;53150;48.296;16.452;2023-02-26T05:23:48;5.95;;;2.53;;
66353;SDS011;53150;48.296;16.452;2023-02-26T05:26:14;5.95;;;2.83;;
66353;SDS011;53150;48.296;16.452;2023-02-26T05:28:40;5.95;;;2.65;;
66353;SDS011;53150;48.296;16.452;2023-02-26T05:31:09;6.75;;;3.03;;
66353;SDS011;53150;48.296;16.452;2023-02-26T05:33:35;5.82;;;2.72;;
66353;SDS011;53150;48.296;16.452;2023-02-26T05:36:01;6.15;;;2.42;;
66353;SDS011;53150;48.296;16.452;2023-02-26T05:38:28;6.22;;;2.65;;
66353;SDS011;53150;48.296;16.452;2023-02-26T05:40:55;8.75;;;3.83;;
66353;SDS011;53150;48.296;16.452;2023-02-26T05:43:21;5.82;;;2.72;;
66353;SDS011;53150;48.296;16.452;2023-02-26T05:45:48;6.25;;;3.10;;
66353;SDS011;53150;48.296;16.452;2023-02-26T05:48:14;7.28;;;3.40;;
66353;SDS011;53150;48.296;16.452;2023-02-26T05:50:40;7.57;;;3.17;;
66353;SDS011;53150;48.296;16.452;2023-02-26T05:53:06;6.20;;;2.83;;
66353;SDS011;53150;48.296;16.452;2023-02-26T05:55:32;5.63;;;3.10;;
66353;SDS011;53150;48.296;16.452;2023-02-26T05:57:59;7.25;;;3.55;;
66353;SDS011;53150;48.296;16.452;2023-02-26T06:00:25;6.70;;;2.83;;
66353;SDS011;53150;48.296;16.452;2023-02-26T06:02:51;7.25;;;2.78;;
66353;SDS011;53150;48.296;16.452;2023-02-26T06:05:17;7.25;;;3.58;;
66353;SDS011;53150;48.296;16.452;2023-02-26T06:07:43;7.53;;;3.20;;
66353;SDS011;53150;48.296;16.452;2023-02-26T06:10:09;7.50;;;3.10;;
66353;SDS011;53150;48.296;16.452;2023-02-26T06:12:36;6.82;;;2.88;;
66353;SDS011;53150;48.296;16.452;2023-02-26T06:15:02;8.85;;;3.75;;
66353;SDS011;53150;48.296;16.452;2023-02-26T06:17:29;7.00;;;3.03;;
66353;SDS011;53150;48.296;16.452;2023-02-26T06:19:55;6.38;;;2.95;;
66353;SDS011;53150;48.296;16.452;2023-02-26T06:22:21;6.50;;;3.10;;
66353;SDS011;53150;48.296;16.452;2023-02-26T06:24:47;5.13;;;2.50;;
66353;SDS011;53150;48.296;16.452;2023-02-26T06:27:13;7.75;;;3.05;;
66353;SDS011;53150;48.296;16.452;2023-02-26T06:29:40;7.82;;;2.90;;
66353;SDS011;53150;48.296;16.452;2023-02-26T06:32:06;6.82;;;3.33;;
66353;SDS011;53150;48.296;16.452;2023-02-26T06:34:32;6.45;;;2.70;;
66353;SDS011;53150;48.296;16.452;2023-02-26T06:36:58;6.90;;;2.75;;
66353;SDS011;53150;48.296;16.452;2023-02-26T06:39:24;7.03;;;2.42;;
66353;SDS011;53150;48.296;16.452;2023-02-26T06:41:50;7.30;;;3.15;;
66353;SDS011;53150;48.296;16.452;2023-02-26T06:44:16;8.05;;;3.55;;
66353;SDS011;53150;48.296;16.452;2023-02-26T06:46:42;6.30;;;2.80;;
66353;SDS011;53150;48.296;16.452;2023-02-26T06:49:09;5.55;;;2.42;;
66353;SDS011;53150;48.296;16.452;2023-02-26T06:51:35;6.22;;;3.03;;
66353;SDS011;53150;48.296;16.452;2023-02-26T06:54:01;6.18;;;2.83;;
66353;SDS011;53150;48.296;16.452;2023-02-26T06:56:27;5.85;;;3.05;;
66353;SDS011;53150;48.296;16.452;2023-02-26T06:58:53;6.03;;;2.70;;
66353;SDS011;53150;48.296;16.452;2023-02-26T07:01:19;6.13;;;2.95;;
66353;SDS011;53150;48.296;16.452;2023-02-26T07:03:45;7.15;;;2.95;;
66353;SDS011;53150;48.296;16.452;2023-02-26T07:06:11;6.97;;;3.40;;
66353;SDS011;53150;48.296;16.452;2023-02-26T07:08:37;4.85;;;2.38;;
66353;SDS011;53150;48.296;16.452;2023-02-26T07:11:03;8.63;;;3.17;;
66353;SDS011;53150;48.296;16.452;2023-02-26T07:13:29;6.45;;;2.55;;
66353;SDS011;53150;48.296;16.452;2023-02-26T07:15:57;7.40;;;2.60;;
66353;SDS011;53150;48.296;16.452;2023-02-26T07:18:23;8.60;;;3.35;;
66353;SDS011;53150;48.296;16.452;2023-02-26T07:20:49;9.77;;;4.53;;
66353;SDS011;53150;48.296;16.452;2023-02-26T07:23:15;8.48;;;3.67;;
66353;SDS011;53150;48.296;16.452;2023-02-26T07:25:41;7.65;;;3.65;;
66353;SDS011;53150;48.296;16.452;2023-02-26T07:28:07;9.32;;;4.20;;
66353;SDS011;53150;48.296;16.452;2023-02-26T07:30:33;9.90;;;4.20;;
66353;SDS011;53150;48.296;16.452;2023-02-26T07:32:59;8.45;;;4.18;;
66353;SDS011;53150;48.296;16.452;2023-02-26T07:35:25;8.18;;;3.72;;
66353;SDS011;53150;48.296;16.452;2023-02-26T07:37:52;7.38;;;3.70;;
66353;SDS011;53150;48.296;16.452;2023-02-26T07:40:18;8.10;;;3.33;;
66353;SDS011;53150;48.296;16.452;2023-02-26T07:42:44;7.00;;;3.30;;
66353;SDS011;53150;48.296;16.452;2023-02-26T07:45:10;6.40;;;3.28;;
66353;SDS011;53150;48.296;16.452;2023-02-26T07:47:36;6.05;;;2.83;;
66353;SDS011;53150;48.296;16.452;2023-02-26T07:50:03;7.03;;;2.83;;
66353;SDS011;53150;48.296;16.452;2023-02-26T07:52:29;6.95;;;3.13;;
66353;SDS011;53150;48.296;16.452;2023-02-26T07:54:55;8.18;;;2.80;;
66353;SDS011;53150;48.296;16.452;2023-02-26T07:57:21;5.80;;;2.80;;
66353;SDS011;53150;48.296;16.452;2023-02-26T07:59:47;6.50;;;3.10;;
66353;SDS011;53150;48.296;16.452;2023-02-26T08:02:13;5.88;;;2.78;;
66353;SDS011;53150;48.296;16.452;2023-02-26T08:04:39;5.40;;;2.30;;
66353;SDS011;53150;48.296;16.452;2023-02-26T08:07:06;4.85;;;2.47;;
66353;SDS011;53150;48.296;16.452;2023-02-26T08:09:32;4.55;;;2.47;;
66353;SDS011;53150;48.296;16.452;2023-02-26T08:11:58;4.63;;;2.33;;
66353;SDS011;53150;48.296;16.452;2023-02-26T08:14:24;6.07;;;2.50;;
66353;SDS011;53150;48.296;16.452;2023-02-26T08:16:50;6.38;;;2.58;;
66353;SDS011;53150;48.296;16.452;2023-02-26T08:19:17;5.15;;;2.03;;
66353;SDS011;53150;48.296;16.452;2023-02-26T08:21:43;4.38;;;2.22;;
66353;SDS011;53150;48.296;16.452;2023-02-26T08:24:10;4.25;;;1.95;;
66353;SDS011;53150;48.296;16.452;2023-02-26T08:26:36;3.67;;;2.10;;
66353;SDS011;53150;48.296;16.452;2023-02-26T08:29:03;4.85;;;2.08;;
66353;SDS011;53150;48.296;16.452;2023-02-26T08:31:29;4.90;;;2.10;;
66353;SDS011;53150;48.296;16.452;2023-02-26T08:33:56;4.07;;;1.70;;
66353;SDS011;53150;48.296;16.452;2023-02-26T08:39:26;4.22;;;1.85;;
66353;SDS011;53150;48.296;16.452;2023-02-26T08:41:52;5.80;;;1.58;;
66353;SDS011;53150;48.296;16.452;2023-02-26T08:44:18;5.15;;;2.17;;
66353;SDS011;53150;48.296;16.452;2023-02-26T08:46:44;6.38;;;2.00;;
66353;SDS011;53150;48.296;16.452;2023-02-26T08:49:10;4.72;;;2.00;;
66353;SDS011;53150;48.296;16.452;2023-02-26T08:51:36;4.57;;;1.73;;
66353;SDS011;53150;48.296;16.452;2023-02-26T08:54:02;3.80;;;1.65;;
66353;SDS011;53150;48.296;16.452;2023-02-26T08:56:28;4.05;;;1.73;;
66353;SDS011;53150;48.296;16.452;2023-02-26T08:58:55;4.03;;;1.88;;
66353;SDS011;53150;48.296;16.452;2023-02-26T09:01:21;4.78;;;1.90;;
66353;SDS011;53150;48.296;16.452;2023-02-26T09:03:47;4.13;;;1.75;;
66353;SDS011;53150;48.296;16.452;2023-02-26T09:06:13;4.28;;;2.13;;
66353;SDS011;53150;48.296;16.452;2023-02-26T09:08:39;4.70;;;1.75;;
66353;SDS011;53150;48.296;16.452;2023-02-26T09:11:05;3.72;;;1.45;;
66353;SDS011;53150;48.296;16.452;2023-02-26T09:13:31;3.83;;;1.98;;
66353;SDS011;53150;48.296;16.452;2023-02-26T09:15:57;5.93;;;1.88;;
66353;SDS011;53150;48.296;16.452;2023-02-26T09:18:23;3.75;;;1.35;;
66353;SDS011;53150;48.296;16.452;2023-02-26T09:20:49;3.47;;;1.48;;
66353;SDS011;53150;48.296;16.452;2023-02-26T09:23:15;4.53;;;1.60;;
66353;SDS011;53150;48.296;16.452;2023-02-26T09:25:41;3.80;;;1.63;;
66353;SDS011;53150;48.296;16.452;2023-02-26T09:28:07;4.53;;;1.65;;
66353;SDS011;53150;48.296;16.452;2023-02-26T09:30:34;4.25;;;1.63;;
66353;SDS011;53150;48.296;16.452;2023-02-26T09:33:00;4.50;;;2.00;;
66353;SDS011;53150;48.296;16.452;2023-02-26T09:35:26;4.57;;;1.60;;
66353;SDS011;53150;48.296;16.452;2023-02-26T09:37:52;4.03;;;1.60;;
66353;SDS011;53150;48.296;16.452;2023-02-26T09:40:20;4.00;;;1.52;;
66353;SDS011;53150;48.296;16.452;2023-02-26T09:45:29;2.95;;;1.25;;
66353;SDS011;53150;48.296;16.452;2023-02-26T09:47:56;3.78;;;1.70;;
66353;SDS011;53150;48.296;16.452;2023-02-26T09:55:38;3.53;;;1.25;;
66353;SDS011;53150;48.296;16.452;2023-02-26T09:58:19;4.05;;;1.50;;
66353;SDS011;53150;48.296;16.452;2023-02-26T10:00:50;2.83;;;1.02;;
66353;SDS011;53150;48.296;16.452;2023-02-26T10:03:24;3.92;;;1.30;;
66353;SDS011;53150;48.296;16.452;2023-02-26T10:08:28;3.05;;;1.30;;
66353;SDS011;53150;48.296;16.452;2023-02-26T10:11:02;3.13;;;1.30;;
66353;SDS011;53150;48.296;16.452;2023-02-26T10:13:32;3.92;;;1.33;;
66353;SDS011;53150;48.296;16.452;2023-02-26T10:16:03;4.43;;;1.30;;
66353;SDS011;53150;48.296;16.452;2023-02-26T10:18:31;3.72;;;1.42;;
66353;SDS011;53150;48.296;16.452;2023-02-26T10:31:04;3.65;;;1.45;;
66353;SDS011;53150;48.296;16.452;2023-02-26T10:36:46;3.47;;;1.25;;
66353;SDS011;53150;48.296;16.452;2023-02-26T10:38:47;3.10;;;1.40;;
66353;SDS011;53150;48.296;16.452;2023-02-26T10:41:15;3.65;;;1.33;;
66353;SDS011;53150;48.296;16.452;2023-02-26T10:43:46;2.70;;;1.13;;
66353;SDS011;53150;48.296;16.452;2023-02-26T10:51:36;3.80;;;1.70;;
66353;SDS011;53150;48.296;16.452;2023-02-26T10:54:04;2.53;;;1.02;;
66353;SDS011;53150;48.296;16.452;2023-02-26T10:56:34;3.67;;;1.67;;
66353;SDS011;53150;48.296;16.452;2023-02-26T10:59:00;5.18;;;1.42;;
66353;SDS011;53150;48.296;16.452;2023-02-26T11:01:27;5.00;;;1.70;;
66353;SDS011;53150;48.296;16.452;2023-02-26T11:03:54;2.80;;;1.15;;
66353;SDS011;53150;48.296;16.452;2023-02-26T11:06:22;3.28;;;1.48;;
66353;SDS011;53150;48.296;16.452;2023-02-26T11:08:53;3.58;;;1.45;;
66353;SDS011;53150;48.296;16.452;2023-02-26T11:11:36;3.28;;;1.20;;
66353;SDS011;53150;48.296;16.452;2023-02-26T11:14:04;2.78;;;1.17;;
66353;SDS011;53150;48.296;16.452;2023-02-26T11:16:30;3.97;;;1.40;;
66353;SDS011;53150;48.296;16.452;2023-02-26T11:18:57;3.78;;;1.50;;
66353;SDS011;53150;48.296;16.452;2023-02-26T11:21:25;4.28;;;1.63;;
66353;SDS011;53150;48.296;16.452;2023-02-26T11:23:54;5.93;;;2.05;;
66353;SDS011;53150;48.296;16.452;2023-02-26T11:26:25;4.68;;;1.77;;
66353;SDS011;53150;48.296;16.452;2023-02-26T11:28:55;5.47;;;2.55;;
66353;SDS011;53150;48.296;16.452;2023-02-26T11:31:23;5.22;;;2.03;;
66353;SDS011;53150;48.296;16.452;2023-02-26T11:33:51;4.82;;;1.77;;
66353;SDS011;53150;48.296;16.452;2023-02-26T11:36:21;5.07;;;2.28;;
66353;SDS011;53150;48.296;16.452;2023-02-26T11:38:55;2.70;;;1.10;;
66353;SDS011;53150;48.296;16.452;2023-02-26T11:41:22;4.35;;;1.33;;
66353;SDS011;53150;48.296;16.452;2023-02-26T11:43:54;4.40;;;1.60;;
66353;SDS011;53150;48.296;16.452;2023-02-26T11:46:23;4.63;;;1.52;;
66353;SDS011;53150;48.296;16.452;2023-02-26T11:48:49;3.63;;;1.95;;
66353;SDS011;53150;48.296;16.452;2023-02-26T11:51:19;4.25;;;1.58;;
66353;SDS011;53150;48.296;16.452;2023-02-26T11:53:50;3.28;;;1.50;;
66353;SDS011;53150;48.296;16.452;2023-02-26T11:56:23;3.22;;;1.30;;
66353;SDS011;53150;48.296;16.452;2023-02-26T11:58:51;3.00;;;1.30;;
66353;SDS011;53150;48.296;16.452;2023-02-26T12:01:17;2.67;;;1.23;;
66353;SDS011;53150;48.296;16.452;2023-02-26T12:03:44;3.97;;;1.30;;
66353;SDS011;53150;48.296;16.452;2023-02-26T12:06:16;4.60;;;1.65;;
66353;SDS011;53150;48.296;16.452;2023-02-26T12:08:42;5.18;;;1.80;;
66353;SDS011;53150;48.296;16.452;2023-02-26T12:17:02;2.60;;;1.13;;
66353;SDS011;53150;48.296;16.452;2023-02-26T12:19:51;3.45;;;1.33;;
66353;SDS011;53150;48.296;16.452;2023-02-26T12:22:34;3.33;;;1.90;;
66353;SDS011;53150;48.296;16.452;2023-02-26T12:25:17;1.85;;;0.73;;
66353;SDS011;53150;48.296;16.452;2023-02-26T12:35:35;4.43;;;1.10;;
66353;SDS011;53150;48.296;16.452;2023-02-26T12:43:26;2.17;;;0.90;;
66353;SDS011;53150;48.296;16.452;2023-02-26T12:46:17;4.18;;;1.52;;
66353;SDS011;53150;48.296;16.452;2023-02-26T12:59:13;3.78;;;1.40;;
66353;SDS011;53150;48.296;16.452;2023-02-26T13:02:05;3.65;;;1.15;;
66353;SDS011;53150;48.296;16.452;2023-02-26T13:04:37;3.33;;;1.30;;
66353;SDS011;53150;48.296;16.452;2023-02-26T13:10:00;3.17;;;1.23;;
66353;SDS011;53150;48.296;16.452;2023-02-26T13:12:30;4.18;;;1.42;;
66353;SDS011;53150;48.296;16.452;2023-02-26T13:20:24;3.95;;;1.48;;
66353;SDS011;53150;48.296;16.452;2023-02-26T13:22:53;3.70;;;1.60;;
66353;SDS011;53150;48.296;16.452;2023-02-26T13:25:22;5.32;;;1.65;;
66353;SDS011;53150;48.296;16.452;2023-02-26T13:27:50;4.30;;;1.80;;
66353;SDS011;53150;48.296;16.452;2023-02-26T13:32:46;3.10;;;1.15;;
66353;SDS011;53150;48.296;16.452;2023-02-26T13:37:44;2.47;;;1.00;;
66353;SDS011;53150;48.296;16.452;2023-02-26T13:56:04;3.30;;;1.40;;
66353;SDS011;53150;48.296;16.452;2023-02-26T13:58:37;3.03;;;1.50;;
66353;SDS011;53150;48.296;16.452;2023-02-26T14:03:40;4.63;;;1.70;;
66353;SDS011;53150;48.296;16.452;2023-02-26T14:24:35;4.20;;;1.55;;
66353;SDS011;53150;48.296;16.452;2023-02-26T14:26:49;4.55;;;1.40;;
66353;SDS011;53150;48.296;16.452;2023-02-26T14:29:20;3.60;;;1.40;;
66353;SDS011;53150;48.296;16.452;2023-02-26T14:34:19;3.60;;;1.30;;
66353;SDS011;53150;48.296;16.452;2023-02-26T14:36:53;3.58;;;1.58;;
66353;SDS011;53150;48.296;16.452;2023-02-26T14:39:28;3.83;;;1.35;;
66353;SDS011;53150;48.296;16.452;2023-02-26T14:42:01;4.28;;;1.42;;
66353;SDS011;53150;48.296;16.452;2023-02-26T14:44:30;3.13;;;1.27;;
66353;SDS011;53150;48.296;16.452;2023-02-26T14:46:59;3.67;;;1.88;;
66353;SDS011;53150;48.296;16.452;2023-02-26T14:51:57;4.30;;;1.52;;
66353;SDS011;53150;48.296;16.452;2023-02-26T15:04:40;3.60;;;1.10;;
66353;SDS011;53150;48.296;16.452;2023-02-26T15:25:22;3.53;;;1.38;;
66353;SDS011;53150;48.296;16.452;2023-02-26T15:27:50;3.38;;;1.38;;
66353;SDS011;53150;48.296;16.452;2023-02-26T15:30:16;3.38;;;1.40;;
66353;SDS011;53150;48.296;16.452;2023-02-26T15:32:42;3.58;;;1.30;;
66353;SDS011;53150;48.296;16.452;2023-02-26T15:35:17;3.55;;;1.48;;
66353;SDS011;53150;48.296;16.452;2023-02-26T15:37:47;4.18;;;1.50;;
66353;SDS011;53150;48.296;16.452;2023-02-26T15:40:13;5.68;;;1.73;;
66353;SDS011;53150;48.296;16.452;2023-02-26T15:42:40;4.65;;;1.73;;
66353;SDS011;53150;48.296;16.452;2023-02-26T15:45:31;3.80;;;1.55;;
66353;SDS011;53150;48.296;16.452;2023-02-26T15:47:54;3.40;;;1.40;;
66353;SDS011;53150;48.296;16.452;2023-02-26T15:50:22;4.22;;;1.63;;
66353;SDS011;53150;48.296;16.452;2023-02-26T15:52:52;3.60;;;1.60;;
66353;SDS011;53150;48.296;16.452;2023-02-26T15:55:19;3.67;;;1.40;;
66353;SDS011;53150;48.296;16.452;2023-02-26T15:57:46;3.47;;;1.35;;
66353;SDS011;53150;48.296;16.452;2023-02-26T16:00:16;4.57;;;1.30;;
66353;SDS011;53150;48.296;16.452;2023-02-26T16:02:48;3.80;;;1.40;;
66353;SDS011;53150;48.296;16.452;2023-02-26T16:05:14;2.65;;;1.05;;
66353;SDS011;53150;48.296;16.452;2023-02-26T16:07:41;4.18;;;1.75;;
66353;SDS011;53150;48.296;16.452;2023-02-26T16:10:14;4.40;;;1.67;;
66353;SDS011;53150;48.296;16.452;2023-02-26T16:12:41;3.97;;;1.60;;
66353;SDS011;53150;48.296;16.452;2023-02-26T16:15:12;3.30;;;1.55;;
66353;SDS011;53150;48.296;16.452;2023-02-26T16:17:39;4.97;;;1.70;;
66353;SDS011;53150;48.296;16.452;2023-02-26T16:20:11;3.95;;;1.90;;
66353;SDS011;53150;48.296;16.452;2023-02-26T16:22:41;4.57;;;2.00;;
66353;SDS011;53150;48.296;16.452;2023-02-26T16:25:13;4.32;;;1.58;;
66353;SDS011;53150;48.296;16.452;2023-02-26T16:27:39;4.20;;;1.55;;
66353;SDS011;53150;48.296;16.452;2023-02-26T16:30:12;3.10;;;1.40;;
66353;SDS011;53150;48.296;16.452;2023-02-26T16:32:39;4.30;;;1.58;;
66353;SDS011;53150;48.296;16.452;2023-02-26T16:35:26;5.18;;;1.80;;
66353;SDS011;53150;48.296;16.452;2023-02-26T16:37:53;5.05;;;1.50;;
66353;SDS011;53150;48.296;16.452;2023-02-26T16:40:26;3.38;;;1.40;;
66353;SDS011;53150;48.296;16.452;2023-02-26T16:42:59;4.18;;;1.67;;
66353;SDS011;53150;48.296;16.452;2023-02-26T16:45:41;2.97;;;1.17;;
66353;SDS011;53150;48.296;16.452;2023-02-26T16:50:39;5.35;;;1.48;;
66353;SDS011;53150;48.296;16.452;2023-02-26T16:53:11;4.38;;;1.40;;
66353;SDS011;53150;48.296;16.452;2023-02-26T16:55:38;3.33;;;1.50;;
66353;SDS011;53150;48.296;16.452;2023-02-26T16:58:09;3.38;;;1.30;;
66353;SDS011;53150;48.296;16.452;2023-02-26T17:00:36;3.55;;;1.55;;
66353;SDS011;53150;48.296;16.452;2023-02-26T17:03:08;3.15;;;1.35;;
66353;SDS011;53150;48.296;16.452;2023-02-26T17:05:36;3.97;;;1.65;;
66353;SDS011;53150;48.296;16.452;2023-02-26T17:08:06;2.70;;;1.30;;
66353;SDS011;53150;48.296;16.452;2023-02-26T17:13:12;4.05;;;1.50;;
66353;SDS011;53150;48.296;16.452;2023-02-26T17:15:39;3.30;;;1.10;;
66353;SDS011;53150;48.296;16.452;2023-02-26T17:18:05;3.72;;;1.85;;
66353;SDS011;53150;48.296;16.452;2023-02-26T17:20:32;3.53;;;1.50;;
66353;SDS011;53150;48.296;16.452;2023-02-26T17:22:59;5.55;;;1.58;;
66353;SDS011;53150;48.296;16.452;2023-02-26T17:25:26;3.88;;;1.60;;
66353;SDS011;53150;48.296;16.452;2023-02-26T17:27:55;4.18;;;1.77;;
66353;SDS011;53150;48.296;16.452;2023-02-26T17:30:22;3.72;;;1.52;;
66353;SDS011;53150;48.296;16.452;2023-02-26T17:32:49;4.40;;;1.55;;
66353;SDS011;53150;48.296;16.452;2023-02-26T17:35:16;5.22;;;2.22;;
66353;SDS011;53150;48.296;16.452;2023-02-26T17:37:43;3.60;;;1.70;;
66353;SDS011;53150;48.296;16.452;2023-02-26T17:42:39;4.97;;;2.00;;
66353;SDS011;53150;48.296;16.452;2023-02-26T17:45:06;3.88;;;1.90;;
66353;SDS011;53150;48.296;16.452;2023-02-26T17:47:33;3.83;;;1.55;;
66353;SDS011;53150;48.296;16.452;2023-02-26T17:49:59;4.38;;;1.67;;
66353;SDS011;53150;48.296;16.452;2023-02-26T17:52:25;3.75;;;1.50;;